createdAt,value
2018-02-12T00:01:48.196Z,100300.12
2018-02-12T00:04:16.314Z,100304.36
2018-02-12T00:06:44.429Z,100305.16
2018-02-12T00:09:12.539Z,100305.63
2018-02-12T00:11:40.667Z,100311.86
2018-02-12T00:14:08.768Z,100305.25
2018-02-12T00:16:36.963Z,100316.02
2018-02-12T00:19:05.073Z,100325.05
2018-02-12T00:21:33.309Z,100325.37
2018-02-12T00:24:01.485Z,100324.94
2018-02-12T00:26:29.570Z,100328.56
2018-02-12T00:28:57.701Z,100333.36
2018-02-12T00:31:25.808Z,100331.27
2018-02-12T00:33:53.941Z,100331.44
2018-02-12T00:36:22.045Z,100339.26
2018-02-12T00:38:50.152Z,100338.72
2018-02-12T00:41:18.262Z,100349.26
2018-02-12T00:43:46.379Z,100339.67
2018-02-12T00:46:14.527Z,100348.98
2018-02-12T00:48:42.630Z,100350.69
2018-02-12T00:51:10.750Z,100357.73
2018-02-12T00:53:38.858Z,100360.31
2018-02-12T00:56:06.984Z,100358.66
2018-02-12T00:58:35.124Z,100357.91
2018-02-12T01:01:03.214Z,100359.37
2018-02-12T01:03:31.376Z,100364.21
2018-02-12T01:05:59.469Z,100371.98
2018-02-12T01:08:30.880Z,100373.49
2018-02-12T01:10:58.978Z,100380.31
2018-02-12T01:13:27.105Z,100378.08
2018-02-12T01:15:55.215Z,100383.22
2018-02-12T01:18:23.318Z,100385.05
2018-02-12T01:20:51.438Z,100387.92
2018-02-12T01:23:19.579Z,100384.19
2018-02-12T01:25:47.738Z,100385.50
2018-02-12T01:28:15.851Z,100375.83
2018-02-12T01:30:43.985Z,100389.00
2018-02-12T01:33:12.130Z,100395.63
2018-02-12T01:35:40.387Z,100390.41
2018-02-12T01:38:08.513Z,100393.36
2018-02-12T01:40:36.615Z,100397.58
2018-02-12T01:43:04.737Z,100399.22
2018-02-12T01:45:32.852Z,100402.91
2018-02-12T01:48:00.963Z,100402.65
2018-02-12T01:50:29.073Z,100408.25
2018-02-12T01:52:57.199Z,100410.52
2018-02-12T01:55:25.313Z,100410.38
2018-02-12T01:57:53.421Z,100418.32
2018-02-12T02:00:21.544Z,100420.70
2018-02-12T02:02:50.589Z,100425.55
2018-02-12T02:05:19.139Z,100432.01
2018-02-12T02:07:47.263Z,100430.77
2018-02-12T02:10:15.370Z,100426.58
2018-02-12T02:12:43.489Z,100423.20
2018-02-12T02:15:11.612Z,100427.72
2018-02-12T02:17:39.724Z,100437.95
2018-02-12T02:20:07.830Z,100435.24
2018-02-12T02:22:35.942Z,100432.84
2018-02-12T02:25:04.069Z,100440.30
2018-02-12T02:27:32.182Z,100440.93
2018-02-12T02:30:00.290Z,100438.84
2018-02-12T02:32:28.403Z,100443.16
2018-02-12T02:34:56.502Z,100451.17
2018-02-12T02:37:24.619Z,100452.97
2018-02-12T02:39:52.715Z,100447.81
2018-02-12T02:42:20.815Z,100448.75
2018-02-12T02:44:49.772Z,100451.75
2018-02-12T02:47:17.890Z,100453.70
2018-02-12T02:49:46.595Z,100453.69
2018-02-12T02:52:14.763Z,100458.16
2018-02-12T02:54:42.879Z,100462.80
2018-02-12T02:57:11.010Z,100460.70
2018-02-12T02:59:39.112Z,100471.98
2018-02-12T03:02:07.229Z,100471.28
2018-02-12T03:04:35.336Z,100470.47
2018-02-12T03:07:03.443Z,100470.84
2018-02-12T03:09:31.565Z,100464.67
2018-02-12T03:11:59.688Z,100468.81
2018-02-12T03:14:27.789Z,100467.87
2018-02-12T03:16:55.920Z,100473.75
2018-02-12T03:19:24.023Z,100476.89
2018-02-12T03:21:52.165Z,100481.30
2018-02-12T03:24:20.227Z,100493.11
2018-02-12T03:26:48.330Z,100490.50
2018-02-12T03:29:16.462Z,100490.08
2018-02-12T03:31:44.573Z,100494.95
2018-02-12T03:34:12.685Z,100496.72
2018-02-12T03:36:40.793Z,100501.52
2018-02-12T03:39:08.895Z,100497.67
2018-02-12T03:41:37.098Z,100504.78
2018-02-12T03:44:05.205Z,100510.53
2018-02-12T03:46:33.310Z,100507.06
2018-02-12T03:49:01.407Z,100506.30
2018-02-12T03:51:29.536Z,100506.68
2018-02-12T03:53:57.666Z,100509.91
2018-02-12T03:56:25.862Z,100514.04
2018-02-12T03:58:53.946Z,100514.42
2018-02-12T04:01:22.060Z,100517.55
2018-02-12T04:03:50.180Z,100525.27
2018-02-12T04:06:18.301Z,100526.84
2018-02-12T04:08:46.421Z,100531.70
2018-02-12T04:11:14.538Z,100537.67
2018-02-12T04:13:42.654Z,100537.34
2018-02-12T04:16:10.773Z,100537.87
2018-02-12T04:18:38.905Z,100541.00
2018-02-12T04:21:06.990Z,100540.80
2018-02-12T04:23:35.086Z,100547.17
2018-02-12T04:26:03.206Z,100553.44
2018-02-12T04:28:31.299Z,100551.16
2018-02-12T04:30:59.425Z,100552.86
2018-02-12T04:33:27.518Z,100552.63
2018-02-12T04:35:55.642Z,100557.69
2018-02-12T04:38:23.748Z,100566.91
2018-02-12T04:40:51.852Z,100569.37
2018-02-12T04:43:19.964Z,100568.91
2018-02-12T04:45:48.077Z,100571.70
2018-02-12T04:48:16.194Z,100572.22
2018-02-12T04:50:44.398Z,100571.56
2018-02-12T04:53:12.525Z,100577.26
2018-02-12T04:55:40.636Z,100581.25
2018-02-12T04:58:08.773Z,100589.23
2018-02-12T05:00:36.899Z,100597.25
2018-02-12T05:03:04.990Z,100595.17
2018-02-12T05:05:33.105Z,100591.60
2018-02-12T05:08:01.206Z,100597.25
2018-02-12T05:10:29.315Z,100603.33
2018-02-12T05:12:57.420Z,100597.39
2018-02-12T05:15:25.533Z,100599.48
2018-02-12T05:17:53.697Z,100604.75
2018-02-12T05:20:21.790Z,100607.73
2018-02-12T05:22:49.901Z,100612.16
2018-02-12T05:25:21.485Z,100614.88
2018-02-12T05:27:49.583Z,100615.48
2018-02-12T05:30:17.680Z,100614.73
2018-02-12T05:32:45.794Z,100622.94
2018-02-12T05:35:13.896Z,100620.84
2018-02-12T05:37:42.013Z,100616.30
2018-02-12T05:40:10.137Z,100626.16
2018-02-12T05:42:38.248Z,100627.74
2018-02-12T05:45:06.354Z,100628.17
2018-02-12T05:47:34.465Z,100634.42
2018-02-12T05:50:02.584Z,100639.74
2018-02-12T05:52:30.693Z,100648.06
2018-02-12T05:54:58.808Z,100637.67
2018-02-12T05:57:26.922Z,100646.20
2018-02-12T05:59:55.031Z,100656.52
2018-02-12T06:02:23.136Z,100660.66
2018-02-12T06:04:51.244Z,100659.70
2018-02-12T06:07:19.351Z,100667.44
2018-02-12T06:09:47.481Z,100668.87
2018-02-12T06:12:15.587Z,100679.12
2018-02-12T06:14:43.686Z,100679.12
2018-02-12T06:17:11.800Z,100679.56
2018-02-12T06:19:39.976Z,100688.72
2018-02-12T06:22:08.083Z,100688.15
2018-02-12T06:24:36.202Z,100683.69
2018-02-12T06:27:04.316Z,100688.05
2018-02-12T06:29:32.437Z,100689.68
2018-02-12T06:32:00.545Z,100692.38
2018-02-12T06:34:28.653Z,100687.84
2018-02-12T06:36:56.784Z,100697.39
2018-02-12T06:39:24.887Z,100704.39
2018-02-12T06:41:53.083Z,100709.55
2018-02-12T06:44:21.207Z,100713.06
2018-02-12T06:46:49.319Z,100721.86
2018-02-12T06:49:17.410Z,100727.86
2018-02-12T06:51:45.545Z,100736.30
2018-02-12T06:54:13.644Z,100729.00
2018-02-12T06:56:41.750Z,100743.53
2018-02-12T06:59:09.894Z,100747.17
2018-02-12T07:01:38.012Z,100742.59
2018-02-12T07:04:06.120Z,100756.08
2018-02-12T07:06:34.233Z,100753.15
2018-02-12T07:09:02.332Z,100756.23
2018-02-12T07:11:30.428Z,100760.04
2018-02-12T07:13:58.550Z,100765.09
2018-02-12T07:16:26.671Z,100767.95
2018-02-12T07:18:54.771Z,100768.55
2018-02-12T07:21:22.887Z,100776.43
2018-02-12T07:23:50.984Z,100776.63
2018-02-12T07:26:19.074Z,100775.08
2018-02-12T07:28:47.247Z,100779.52
2018-02-12T07:31:15.365Z,100777.59
2018-02-12T07:33:43.462Z,100784.59
2018-02-12T07:36:11.575Z,100785.92
2018-02-12T07:38:39.675Z,100788.92
2018-02-12T07:41:07.849Z,100791.55
2018-02-12T07:43:35.957Z,100792.18
2018-02-12T07:46:04.092Z,100795.63
2018-02-12T07:48:32.195Z,100797.47
2018-02-12T07:51:00.309Z,100803.28
2018-02-12T07:53:28.404Z,100806.21
2018-02-12T07:55:56.532Z,100811.37
2018-02-12T07:58:24.645Z,100819.02
2018-02-12T08:00:52.739Z,100815.57
2018-02-12T08:03:20.871Z,100823.09
2018-02-12T08:05:48.985Z,100824.99
2018-02-12T08:08:17.098Z,100830.16
2018-02-12T08:10:45.208Z,100830.64
2018-02-12T08:13:13.319Z,100832.55
2018-02-12T08:15:41.432Z,100842.92
2018-02-12T08:18:09.672Z,100841.26
2018-02-12T08:20:37.810Z,100850.44
2018-02-12T08:23:05.906Z,100851.63
2018-02-12T08:25:34.064Z,100855.77
2018-02-12T08:28:02.140Z,100861.85
2018-02-12T08:30:30.244Z,100862.80
2018-02-12T08:32:58.376Z,100872.09
2018-02-12T08:35:26.491Z,100874.83
2018-02-12T08:37:54.600Z,100872.86
2018-02-12T08:40:22.721Z,100867.28
2018-02-12T08:42:50.844Z,100881.37
2018-02-12T08:45:21.962Z,100878.73
2018-02-12T08:47:50.082Z,100884.59
2018-02-12T08:50:18.179Z,100881.63
2018-02-12T08:52:46.309Z,100886.65
2018-02-12T08:55:14.429Z,100886.02
2018-02-12T08:57:42.537Z,100899.42
2018-02-12T09:00:10.668Z,100905.78
2018-02-12T09:02:38.771Z,100907.16
2018-02-12T09:05:06.907Z,100911.42
2018-02-12T09:07:35.014Z,100906.97
2018-02-12T09:10:03.127Z,100906.80
2018-02-12T09:12:31.246Z,100913.30
2018-02-12T09:14:59.331Z,100920.67
2018-02-12T09:17:27.447Z,100923.66
2018-02-12T09:19:55.580Z,100925.95
2018-02-12T09:22:23.693Z,100925.18
2018-02-12T09:24:51.810Z,100930.57
2018-02-12T09:27:19.940Z,100932.52
2018-02-12T09:29:48.031Z,100939.13
2018-02-12T09:32:16.145Z,100950.38
2018-02-12T09:34:44.243Z,100946.47
2018-02-12T09:37:12.375Z,100944.39
2018-02-12T09:39:40.492Z,100951.08
2018-02-12T09:42:08.657Z,100950.55
2018-02-12T09:44:36.813Z,100957.88
2018-02-12T09:47:04.917Z,100964.84
2018-02-12T09:49:33.046Z,100965.45
2018-02-12T09:52:04.348Z,100967.86
2018-02-12T09:54:32.466Z,100973.12
2018-02-12T09:57:00.590Z,100971.50
2018-02-12T09:59:28.699Z,100968.22
2018-02-12T10:01:56.809Z,100976.33
2018-02-12T10:04:24.909Z,100977.11
2018-02-12T10:06:53.025Z,100981.96
2018-02-12T10:09:21.158Z,100983.70
2018-02-12T10:11:49.315Z,100987.01
2018-02-12T10:14:17.382Z,100991.28
2018-02-12T10:16:45.553Z,100991.41
2018-02-12T10:19:13.675Z,100994.06
2018-02-12T10:21:41.987Z,101005.42
2018-02-12T10:24:10.051Z,101016.83
2018-02-12T10:26:38.169Z,101012.75
2018-02-12T10:29:06.722Z,101023.27
2018-02-12T10:31:34.829Z,101030.57
2018-02-12T10:34:02.957Z,101027.38
2018-02-12T10:36:31.068Z,101026.95
2018-02-12T10:38:59.194Z,101026.64
2018-02-12T10:41:27.311Z,101032.52
2018-02-12T10:43:55.433Z,101035.33
2018-02-12T10:46:23.558Z,101033.45
2018-02-12T10:48:51.673Z,101033.77
2018-02-12T10:51:19.800Z,101030.80
2018-02-12T10:53:47.899Z,101028.52
2018-02-12T10:56:16.029Z,101030.86
2018-02-12T10:58:44.125Z,101036.02
2018-02-12T11:01:15.486Z,101035.12
2018-02-12T11:03:43.598Z,101041.09
2018-02-12T11:06:11.759Z,101039.27
2018-02-12T11:08:39.833Z,101036.73
2018-02-12T11:11:07.961Z,101046.01
2018-02-12T11:13:36.077Z,101042.50
2018-02-12T11:16:04.182Z,101047.16
2018-02-12T11:18:32.313Z,101048.00
2018-02-12T11:21:00.432Z,101038.88
2018-02-12T11:23:28.544Z,101044.63
2018-02-12T11:25:56.651Z,101046.56
2018-02-12T11:28:24.738Z,101038.47
2018-02-12T11:30:52.856Z,101040.48
2018-02-12T11:33:20.966Z,101042.20
2018-02-12T11:35:49.577Z,101042.84
2018-02-12T11:38:17.690Z,101040.36
2018-02-12T11:40:45.798Z,101044.81
2018-02-12T11:43:13.903Z,101049.50
2018-02-12T11:45:42.032Z,101055.67
2018-02-12T11:48:10.134Z,101047.48
2018-02-12T11:50:38.236Z,101054.88
2018-02-12T11:53:06.604Z,101049.05
2018-02-12T11:55:34.715Z,101049.33
2018-02-12T11:58:02.843Z,101058.56
2018-02-12T12:00:30.942Z,101051.58
2018-02-12T12:02:59.082Z,101047.09
2018-02-12T12:05:27.206Z,101055.48
2018-02-12T12:07:55.321Z,101046.42
2018-02-12T12:10:23.435Z,101053.68
2018-02-12T12:12:51.625Z,101054.95
2018-02-12T12:15:19.840Z,101055.13
2018-02-12T12:17:47.950Z,101052.26
2018-02-12T12:20:16.071Z,101049.38
2018-02-12T12:22:44.195Z,101050.42
2018-02-12T12:25:12.318Z,101063.13
2018-02-12T12:27:40.446Z,101056.14
2018-02-12T12:30:08.559Z,101055.86
2018-02-12T12:32:36.686Z,101052.45
2018-02-12T12:35:04.806Z,101055.64
2018-02-12T12:37:32.943Z,101063.34
2018-02-12T12:40:01.054Z,101056.86
2018-02-12T12:42:29.174Z,101056.38
2018-02-12T12:44:57.264Z,101051.83
2018-02-12T12:47:25.396Z,101048.66
2018-02-12T12:49:53.526Z,101048.36
2018-02-12T12:52:21.629Z,101056.16
2018-02-12T12:54:49.809Z,101056.93
2018-02-12T12:57:17.926Z,101048.86
2018-02-12T12:59:46.039Z,101044.75
2018-02-12T13:02:14.168Z,101037.85
2018-02-12T13:04:42.278Z,101039.38
2018-02-12T13:07:10.403Z,101053.38
2018-02-12T13:09:38.519Z,101052.07
2018-02-12T13:12:06.628Z,101054.17
2018-02-12T13:14:34.751Z,101056.00
2018-02-12T13:17:02.898Z,101051.64
2018-02-12T13:19:31.015Z,101053.49
2018-02-12T13:21:59.119Z,101048.16
2018-02-12T13:24:27.574Z,101045.95
2018-02-12T13:26:55.685Z,101044.20
2018-02-12T13:29:23.791Z,101042.84
2018-02-12T13:31:51.946Z,101040.59
2018-02-12T13:34:20.055Z,101044.72
2018-02-12T13:36:48.183Z,101042.70
2018-02-12T13:39:16.293Z,101045.39
2018-02-12T13:41:44.412Z,101049.67
2018-02-12T13:44:12.510Z,101048.52
2018-02-12T13:46:40.623Z,101044.12
2018-02-12T13:49:08.794Z,101044.50
2018-02-12T13:51:37.094Z,101050.52
2018-02-12T13:54:05.214Z,101055.39
2018-02-12T13:56:33.326Z,101058.79
2018-02-12T13:59:01.465Z,101059.91
2018-02-12T14:01:29.564Z,101063.39
2018-02-12T14:03:57.690Z,101055.03
2018-02-12T14:06:25.807Z,101056.48
2018-02-12T14:08:53.912Z,101053.31
2018-02-12T14:11:22.099Z,101057.08
2018-02-12T14:13:50.187Z,101055.97
2018-02-12T14:16:18.344Z,101052.67
2018-02-12T14:18:46.454Z,101056.00
2018-02-12T14:21:14.562Z,101051.47
2018-02-12T14:23:42.677Z,101057.41
2018-02-12T14:26:10.802Z,101064.62
2018-02-12T14:28:38.918Z,101062.64
2018-02-12T14:31:07.015Z,101065.90
2018-02-12T14:33:35.137Z,101058.52
2018-02-12T14:36:03.257Z,101078.17
2018-02-12T14:38:31.343Z,101065.97
2018-02-12T14:40:59.443Z,101060.62
2018-02-12T14:43:27.561Z,101059.19
2018-02-12T14:45:55.670Z,101061.80
2018-02-12T14:48:23.785Z,101070.30
2018-02-12T14:50:51.890Z,101067.50
2018-02-12T14:53:20.018Z,101061.18
2018-02-12T14:55:48.119Z,101058.92
2018-02-12T14:58:16.254Z,101060.41
2018-02-12T15:00:44.354Z,101068.92
2018-02-12T15:03:12.500Z,101071.32
2018-02-12T15:05:40.620Z,101078.43
2018-02-12T15:08:08.756Z,101081.31
2018-02-12T15:10:36.854Z,101078.45
2018-02-12T15:13:04.952Z,101076.34
2018-02-12T15:15:33.097Z,101081.91
2018-02-12T15:18:01.289Z,101082.72
2018-02-12T15:20:29.330Z,101081.68
2018-02-12T15:22:57.450Z,101079.42
2018-02-12T15:25:29.317Z,101078.08
2018-02-12T15:27:57.429Z,101074.99
2018-02-12T15:30:25.545Z,101074.37
2018-02-12T15:32:53.665Z,101085.25
2018-02-12T15:35:21.750Z,101082.92
2018-02-12T15:37:49.851Z,101096.36
2018-02-12T15:40:17.983Z,101099.81
2018-02-12T15:42:46.213Z,101107.14
2018-02-12T15:45:14.322Z,101108.97
2018-02-12T15:47:42.507Z,101106.24
2018-02-12T15:50:10.566Z,101111.43
2018-02-12T15:52:38.677Z,101104.19
2018-02-12T15:55:06.795Z,101110.52
2018-02-12T15:57:34.905Z,101110.02
2018-02-12T16:00:03.022Z,101113.47
2018-02-12T16:02:34.489Z,101120.92
2018-02-12T16:05:02.631Z,101119.55
2018-02-12T16:07:30.744Z,101113.78
2018-02-12T16:09:58.874Z,101123.73
2018-02-12T16:12:27.007Z,101121.33
2018-02-12T16:14:55.125Z,101125.58
2018-02-12T16:17:23.223Z,101122.44
2018-02-12T16:19:51.341Z,101129.61
2018-02-12T16:22:19.447Z,101126.69
2018-02-12T16:24:48.397Z,101117.86
2018-02-12T16:27:16.502Z,101127.00
2018-02-12T16:29:44.608Z,101130.87
2018-02-12T16:32:12.732Z,101135.30
2018-02-12T16:34:40.831Z,101137.26
2018-02-12T16:37:08.953Z,101132.74
2018-02-12T16:39:37.060Z,101137.27
2018-02-12T16:42:05.227Z,101137.41
2018-02-12T16:44:33.335Z,101150.38
2018-02-12T16:47:04.841Z,101152.86
2018-02-12T16:49:33.027Z,101150.97
2018-02-12T16:52:01.137Z,101156.92
2018-02-12T16:54:29.274Z,101157.47
2018-02-12T16:56:57.398Z,101165.00
2018-02-12T16:59:25.507Z,101169.08
2018-02-12T17:01:53.602Z,101168.33
2018-02-12T17:04:21.715Z,101171.28
2018-02-12T17:06:49.836Z,101172.37
2018-02-12T17:09:17.967Z,101179.42
2018-02-12T17:11:46.064Z,101175.60
2018-02-12T17:14:14.162Z,101179.25
2018-02-12T17:16:42.266Z,101177.34
2018-02-12T17:19:10.375Z,101178.28
2018-02-12T17:21:38.571Z,101180.56
2018-02-12T17:24:06.868Z,101183.56
2018-02-12T17:26:34.749Z,101183.45
2018-02-12T17:29:02.878Z,101180.70
2018-02-12T17:31:30.998Z,101181.28
2018-02-12T17:33:59.120Z,101187.52
2018-02-12T17:36:27.219Z,101185.91
2018-02-12T17:38:55.341Z,101192.97
2018-02-12T17:41:23.459Z,101188.25
2018-02-12T17:43:51.575Z,101190.75
2018-02-12T17:46:19.670Z,101185.02
2018-02-12T17:48:47.792Z,101189.77
2018-02-12T17:51:15.896Z,101197.02
2018-02-12T17:53:44.011Z,101197.57
2018-02-12T17:56:12.122Z,101196.05
2018-02-12T17:58:40.236Z,101197.87
2018-02-12T18:01:08.352Z,101197.97
2018-02-12T18:03:36.498Z,101199.24
2018-02-12T18:06:04.603Z,101206.79
2018-02-12T18:08:32.727Z,101209.52
2018-02-12T18:11:00.865Z,101211.00
2018-02-12T18:13:28.980Z,101210.18
2018-02-12T18:15:57.094Z,101211.73
2018-02-12T18:18:25.243Z,101217.69
2018-02-12T18:20:53.354Z,101209.84
2018-02-12T18:23:21.478Z,101209.45
2018-02-12T18:25:49.584Z,101215.97
2018-02-12T18:28:17.691Z,101219.42
2018-02-12T18:30:45.796Z,101217.15
2018-02-12T18:33:13.900Z,101217.42
2018-02-12T18:35:42.022Z,101218.45
2018-02-12T18:38:10.151Z,101226.78
2018-02-12T18:40:38.251Z,101227.58
2018-02-12T18:43:06.372Z,101223.42
2018-02-12T18:45:34.471Z,101222.95
2018-02-12T18:48:02.597Z,101227.27
2018-02-12T18:50:30.709Z,101231.80
2018-02-12T18:52:58.853Z,101226.31
2018-02-12T18:55:26.950Z,101237.42
2018-02-12T18:57:55.074Z,101230.11
2018-02-12T19:00:23.187Z,101234.08
2018-02-12T19:02:51.298Z,101231.44
2018-02-12T19:05:19.416Z,101230.89
2018-02-12T19:07:47.507Z,101237.70
2018-02-12T19:10:15.617Z,101240.61
2018-02-12T19:12:43.718Z,101238.62
2018-02-12T19:15:11.888Z,101242.16
2018-02-12T19:17:39.967Z,101240.95
2018-02-12T19:20:08.106Z,101235.20
2018-02-12T19:22:36.217Z,101239.16
2018-02-12T19:25:04.396Z,101242.45
2018-02-12T19:27:32.510Z,101240.36
2018-02-12T19:30:00.624Z,101237.53
2018-02-12T19:32:28.775Z,101243.19
2018-02-12T19:34:56.923Z,101238.89
2018-02-12T19:37:25.033Z,101242.05
2018-02-12T19:39:53.162Z,101240.63
2018-02-12T19:42:21.462Z,101248.41
2018-02-12T19:44:49.597Z,101248.66
2018-02-12T19:47:17.698Z,101249.91
2018-02-12T19:49:45.829Z,101248.69
2018-02-12T19:52:17.287Z,101249.67
2018-02-12T19:54:45.418Z,101247.94
2018-02-12T19:57:13.520Z,101256.34
2018-02-12T19:59:41.877Z,101258.66
2018-02-12T20:02:10.055Z,101260.73
2018-02-12T20:04:38.296Z,101254.34
2018-02-12T20:07:06.597Z,101261.00
2018-02-12T20:09:34.953Z,101264.41
2018-02-12T20:12:03.343Z,101259.15
2018-02-12T20:14:31.888Z,101263.34
2018-02-12T20:17:00.044Z,101255.10
2018-02-12T20:19:28.381Z,101258.09
2018-02-12T20:21:56.600Z,101257.99
2018-02-12T20:24:24.761Z,101266.05
2018-02-12T20:26:52.925Z,101264.13
2018-02-12T20:29:24.787Z,101268.55
2018-02-12T20:31:52.923Z,101267.47
2018-02-12T20:34:21.013Z,101270.78
2018-02-12T20:36:49.133Z,101267.81
2018-02-12T20:39:17.467Z,101269.28
2018-02-12T20:41:46.303Z,101274.86
2018-02-12T20:44:14.500Z,101275.84
2018-02-12T20:46:42.630Z,101272.76
2018-02-12T20:49:10.773Z,101276.66
2018-02-12T20:51:38.992Z,101277.64
2018-02-12T20:54:07.118Z,101283.73
2018-02-12T20:56:35.241Z,101277.17
2018-02-12T20:59:03.365Z,101279.97
2018-02-12T21:01:31.482Z,101276.53
2018-02-12T21:03:59.610Z,101274.98
2018-02-12T21:06:27.731Z,101279.17
2018-02-12T21:08:55.914Z,101276.36
2018-02-12T21:11:24.039Z,101280.89
2018-02-12T21:13:52.171Z,101276.21
2018-02-12T21:16:20.305Z,101280.97
2018-02-12T21:18:48.408Z,101274.86
2018-02-12T21:21:16.525Z,101287.86
2018-02-12T21:23:44.683Z,101284.59
2018-02-12T21:26:12.738Z,101279.62
2018-02-12T21:28:40.858Z,101280.06
2018-02-12T21:31:08.976Z,101280.27
2018-02-12T21:33:37.107Z,101279.83
2018-02-12T21:36:05.226Z,101278.52
2018-02-12T21:38:33.327Z,101284.55
2018-02-12T21:41:01.449Z,101271.07
2018-02-12T21:43:29.575Z,101273.55
2018-02-12T21:45:57.687Z,101273.08
2018-02-12T21:48:25.796Z,101271.42
2018-02-12T21:50:53.898Z,101271.44
2018-02-12T21:53:22.001Z,101274.61
2018-02-12T21:55:50.130Z,101262.20
2018-02-12T21:58:18.239Z,101264.71
2018-02-12T22:00:46.373Z,101271.95
2018-02-12T22:03:14.481Z,101265.63
2018-02-12T22:05:42.605Z,101262.83
2018-02-12T22:08:10.720Z,101264.25
2018-02-12T22:10:38.818Z,101264.94
2018-02-12T22:13:06.945Z,101264.63
2018-02-12T22:15:38.227Z,101263.91
2018-02-12T22:18:06.348Z,101259.22
2018-02-12T22:20:34.459Z,101267.27
2018-02-12T22:23:02.590Z,101259.98
2018-02-12T22:25:30.765Z,101256.90
2018-02-12T22:27:58.882Z,101255.58
2018-02-12T22:30:27.003Z,101252.84
2018-02-12T22:32:55.126Z,101253.25
2018-02-12T22:35:23.231Z,101251.05
2018-02-12T22:37:51.776Z,101257.00
2018-02-12T22:40:19.830Z,101251.59
2018-02-12T22:42:47.948Z,101260.00
2018-02-12T22:45:16.061Z,101253.48
2018-02-12T22:47:44.171Z,101252.48
2018-02-12T22:50:12.310Z,101260.80
2018-02-12T22:52:43.631Z,101257.72
2018-02-12T22:55:11.737Z,101261.42
2018-02-12T22:57:39.836Z,101258.50
2018-02-12T23:00:07.966Z,101261.64
2018-02-12T23:02:36.081Z,101261.91
2018-02-12T23:05:04.202Z,101262.89
2018-02-12T23:07:32.311Z,101257.75
2018-02-12T23:10:00.471Z,101260.17
2018-02-12T23:12:28.600Z,101256.42
2018-02-12T23:14:56.740Z,101259.78
2018-02-12T23:17:24.986Z,101259.34
2018-02-12T23:19:53.192Z,101259.23
2018-02-12T23:22:21.319Z,101261.96
2018-02-12T23:24:49.406Z,101258.80
2018-02-12T23:27:17.524Z,101264.96
2018-02-12T23:29:45.622Z,101261.00
2018-02-12T23:32:13.737Z,101261.20
2018-02-12T23:34:43.790Z,101261.32
2018-02-12T23:37:11.888Z,101256.98
2018-02-12T23:39:40.013Z,101253.41
2018-02-12T23:42:08.125Z,101256.11
2018-02-12T23:44:36.245Z,101256.80
2018-02-12T23:47:04.363Z,101259.09
2018-02-12T23:49:32.471Z,101248.00
2018-02-12T23:52:00.584Z,101250.11
2018-02-12T23:54:28.714Z,101249.45
2018-02-12T23:56:56.811Z,101247.83
2018-02-12T23:59:24.911Z,101246.50
